Time;durP1;ratioP1;P1;durP2;ratioP2;P2;SDS_P1;SDS_P2;PMS_P1;PMS_P2;Temp;Humidity;BMP_temperature;BMP_pressure;BME280_temperature;BME280_humidity;BME280_pressure;Samples;Min_cycle;Max_cycle;Signal;HPM_P1;HPM_P2
2022/03/08 00:01:06;;;;;;;4.43;3.45;;;2.70;99.90;;;;;;5061955;28;20116;-74
2022/03/08 00:03:33;;;;;;;6.75;3.30;;;2.00;99.90;;;;;;5047188;28;20098;-75
2022/03/08 00:06:00;;;;;;;7.28;3.70;;;3.50;99.90;;;;;;5062725;28;20067;-74
2022/03/08 00:08:25;;;;;;;5.20;3.47;;;2.20;99.90;;;;;;5077417;28;20040;-74
2022/03/08 00:10:51;;;;;;;5.38;3.80;;;2.20;99.90;;;;;;5056876;28;20087;-75
2022/03/08 00:13:17;;;;;;;5.28;3.85;;;2.40;99.90;;;;;;5064454;28;20289;-74
2022/03/08 00:15:43;;;;;;;5.72;3.88;;;2.20;99.90;;;;;;5081000;28;20028;-75
2022/03/08 00:18:09;;;;;;;6.30;3.72;;;3.20;99.90;;;;;;5076736;28;20090;-75
2022/03/08 00:20:35;;;;;;;5.03;3.90;;;1.80;99.90;;;;;;5044045;28;20352;-75
2022/03/08 00:23:01;;;;;;;5.70;3.65;;;2.30;99.90;;;;;;5078488;28;20047;-75
2022/03/08 00:25:27;;;;;;;5.25;3.80;;;2.00;99.90;;;;;;5078935;28;20063;-76
2022/03/08 00:27:53;;;;;;;5.70;3.83;;;2.00;99.90;;;;;;5074170;28;20036;-75
2022/03/08 00:30:27;;;;;;;6.45;4.32;;;2.20;99.90;;;;;;5062378;28;20111;-75
2022/03/08 00:32:53;;;;;;;5.65;4.30;;;3.00;99.90;;;;;;5071067;28;20048;-76
2022/03/08 00:35:21;;;;;;;6.30;4.25;;;2.50;99.90;;;;;;5079571;28;20322;-73
2022/03/08 00:37:48;;;;;;;5.88;3.78;;;1.80;99.90;;;;;;5075172;28;20215;-75
2022/03/08 00:40:15;;;;;;;7.00;4.38;;;1.80;99.90;;;;;;5054591;28;20040;-74
2022/03/08 00:42:41;;;;;;;7.53;4.32;;;1.80;99.90;;;;;;5046192;28;20262;-74
2022/03/08 00:45:08;;;;;;;5.82;4.38;;;1.90;99.90;;;;;;5043534;28;20045;-74
2022/03/08 00:47:39;;;;;;;5.55;4.30;;;1.90;99.90;;;;;;5060689;28;20322;-74
2022/03/08 00:50:15;;;;;;;6.53;3.92;;;2.00;99.90;;;;;;5045988;28;20071;-74
2022/03/08 00:52:41;;;;;;;6.85;4.05;;;1.90;99.90;;;;;;5056593;28;20037;-74
2022/03/08 00:55:08;;;;;;;5.20;3.90;;;1.80;99.90;;;;;;5055797;28;20044;-74
2022/03/08 00:57:34;;;;;;;6.97;4.32;;;2.20;99.90;;;;;;5075680;28;20552;-74
2022/03/08 01:00:00;;;;;;;5.90;4.53;;;1.90;99.90;;;;;;5063061;28;20056;-74
2022/03/08 01:02:25;;;;;;;8.02;4.25;;;2.60;99.90;;;;;;5044857;28;20071;-75
2022/03/08 01:04:51;;;;;;;9.07;5.57;;;1.90;99.90;;;;;;5078311;28;20064;-75
2022/03/08 01:07:17;;;;;;;5.70;4.40;;;2.10;99.90;;;;;;5061108;28;20320;-74
2022/03/08 01:09:44;;;;;;;6.65;4.40;;;2.00;99.90;;;;;;5079366;28;20041;-74
2022/03/08 01:12:10;;;;;;;5.95;4.00;;;2.50;99.90;;;;;;5058357;28;20049;-74
2022/03/08 01:14:36;;;;;;;5.78;4.10;;;1.70;99.90;;;;;;5045603;28;20067;-75
2022/03/08 01:17:02;;;;;;;6.43;4.40;;;3.00;99.90;;;;;;5063787;28;20302;-74
2022/03/08 01:19:27;;;;;;;6.22;4.03;;;2.00;99.90;;;;;;5072894;28;20094;-74
2022/03/08 01:21:53;;;;;;;6.25;4.50;;;2.80;99.90;;;;;;5041176;28;20037;-73
2022/03/08 01:24:19;;;;;;;5.72;4.65;;;2.20;99.90;;;;;;5073039;28;20071;-74
2022/03/08 01:26:44;;;;;;;7.03;4.80;;;2.40;99.90;;;;;;5049746;28;20379;-74
2022/03/08 01:29:10;;;;;;;7.10;4.75;;;2.80;99.90;;;;;;5044531;28;20089;-74
2022/03/08 01:31:36;;;;;;;7.35;5.18;;;1.70;99.90;;;;;;5015927;28;20040;-74
2022/03/08 01:34:03;;;;;;;5.68;4.28;;;1.70;99.90;;;;;;5044364;28;20388;-75
2022/03/08 01:36:28;;;;;;;7.05;4.88;;;1.70;99.90;;;;;;5061161;28;20036;-74
2022/03/08 01:38:54;;;;;;;8.20;5.07;;;1.80;99.90;;;;;;5078232;28;20059;-74
2022/03/08 01:41:20;;;;;;;7.57;5.43;;;1.90;99.90;;;;;;5062228;28;20037;-75
2022/03/08 01:43:47;;;;;;;6.70;5.00;;;1.80;99.90;;;;;;5073578;28;20036;-74
2022/03/08 01:46:15;;;;;;;6.35;5.00;;;2.10;99.90;;;;;;5048800;28;20104;-74
2022/03/08 01:48:41;;;;;;;6.53;4.82;;;2.10;99.90;;;;;;5054167;28;20047;-74
2022/03/08 01:51:07;;;;;;;7.93;5.15;;;3.10;99.90;;;;;;5054731;28;20334;-74
2022/03/08 01:53:34;;;;;;;6.05;4.90;;;1.70;99.90;;;;;;5056845;28;20199;-74
2022/03/08 01:56:00;;;;;;;8.77;5.50;;;1.60;99.90;;;;;;5042753;28;20060;-74
2022/03/08 01:58:26;;;;;;;7.00;5.57;;;3.10;99.90;;;;;;5041902;28;20044;-74
2022/03/08 02:00:51;;;;;;;7.75;5.93;;;1.70;99.90;;;;;;5044519;28;20112;-74
2022/03/08 02:03:17;;;;;;;8.10;5.30;;;2.10;99.90;;;;;;5038404;28;20101;-74
2022/03/08 02:05:43;;;;;;;6.80;5.28;;;1.70;99.90;;;;;;5059722;28;20033;-74
2022/03/08 02:08:09;;;;;;;9.63;6.38;;;2.40;99.90;;;;;;5062237;28;20045;-73
2022/03/08 02:10:34;;;;;;;9.02;5.68;;;1.60;99.90;;;;;;5027847;28;20251;-73
2022/03/08 02:13:00;;;;;;;8.55;5.40;;;1.70;99.90;;;;;;5056542;28;20275;-73
2022/03/08 02:15:28;;;;;;;7.13;5.82;;;1.80;99.90;;;;;;5045091;28;20040;-73
2022/03/08 02:17:59;;;;;;;7.90;5.93;;;1.90;99.90;;;;;;5054194;28;20107;-73
2022/03/08 02:20:26;;;;;;;7.55;6.05;;;2.60;99.90;;;;;;5058815;28;20040;-73
2022/03/08 02:22:53;;;;;;;7.57;5.78;;;1.70;99.90;;;;;;5049069;28;20037;-74
2022/03/08 02:25:20;;;;;;;7.85;5.50;;;2.10;99.90;;;;;;5077823;28;20330;-74
2022/03/08 02:27:50;;;;;;;8.30;6.35;;;1.60;99.90;;;;;;5071119;28;20064;-74
2022/03/08 02:30:17;;;;;;;9.02;5.93;;;1.90;99.90;;;;;;5065658;28;20083;-73
2022/03/08 02:32:43;;;;;;;8.35;6.00;;;3.10;99.90;;;;;;5076024;28;20033;-74
2022/03/08 02:35:12;;;;;;;8.20;6.00;;;1.90;99.90;;;;;;5075271;28;20055;-75
2022/03/08 02:37:45;;;;;;;7.82;6.28;;;1.90;99.90;;;;;;5066595;28;20072;-75
2022/03/08 02:40:17;;;;;;;8.60;6.18;;;2.10;99.90;;;;;;5047869;28;20037;-75
2022/03/08 02:42:43;;;;;;;8.27;6.38;;;2.40;99.90;;;;;;5051847;28;20045;-74
2022/03/08 02:45:10;;;;;;;8.25;6.10;;;1.80;99.90;;;;;;5065034;28;20078;-73
2022/03/08 02:47:36;;;;;;;7.82;5.95;;;1.80;99.90;;;;;;5049222;28;20369;-74
2022/03/08 02:50:03;;;;;;;10.18;6.82;;;2.00;99.90;;;;;;5065777;28;20044;-74
2022/03/08 02:52:29;;;;;;;8.63;6.40;;;1.60;99.90;;;;;;5080461;28;20048;-74
2022/03/08 02:54:55;;;;;;;8.40;6.57;;;1.70;99.90;;;;;;5070514;28;20032;-74
2022/03/08 02:57:20;;;;;;;10.40;6.13;;;1.90;99.90;;;;;;5080433;28;20056;-73
2022/03/08 02:59:46;;;;;;;8.98;6.50;;;2.40;99.90;;;;;;5048271;28;20045;-73
2022/03/08 03:02:12;;;;;;;9.90;6.82;;;1.80;99.90;;;;;;5031759;28;20056;-73
2022/03/08 03:04:37;;;;;;;9.90;6.63;;;3.10;99.90;;;;;;5014990;28;20024;-73
2022/03/08 03:07:04;;;;;;;9.45;7.45;;;1.90;99.90;;;;;;5069257;28;20047;-73
2022/03/08 03:09:29;;;;;;;9.30;6.85;;;1.80;99.90;;;;;;5073247;28;20259;-73
2022/03/08 03:11:55;;;;;;;9.20;6.38;;;1.50;99.90;;;;;;5036374;28;20072;-73
2022/03/08 03:14:20;;;;;;;10.50;7.45;;;1.50;99.90;;;;;;5032731;28;20074;-73
2022/03/08 03:16:46;;;;;;;11.23;8.52;;;1.50;99.90;;;;;;5051398;28;20091;-74
2022/03/08 03:19:12;;;;;;;10.90;8.10;;;1.50;99.90;;;;;;5063102;28;20033;-73
2022/03/08 03:21:37;;;;;;;8.80;6.93;;;1.60;99.90;;;;;;5046508;28;20032;-72
2022/03/08 03:24:03;;;;;;;9.70;7.13;;;1.90;99.90;;;;;;5045725;28;20101;-74
2022/03/08 03:26:29;;;;;;;9.45;7.75;;;1.40;99.90;;;;;;5050906;28;20222;-72
2022/03/08 03:28:55;;;;;;;13.70;8.52;;;1.40;99.90;;;;;;5069433;28;20361;-73
2022/03/08 03:31:21;;;;;;;11.60;8.55;;;1.60;99.90;;;;;;5072704;28;20053;-75
2022/03/08 03:33:46;;;;;;;10.77;8.32;;;1.40;99.90;;;;;;5064884;28;20037;-74
2022/03/08 03:36:12;;;;;;;10.48;7.82;;;1.90;99.90;;;;;;5069299;28;20040;-74
2022/03/08 03:38:38;;;;;;;10.73;8.10;;;3.00;99.90;;;;;;5068436;28;20059;-75
2022/03/08 03:41:04;;;;;;;11.68;8.10;;;2.30;99.90;;;;;;5045601;28;20048;-73
2022/03/08 03:43:29;;;;;;;11.10;8.52;;;1.40;99.90;;;;;;5046784;28;20048;-74
2022/03/08 03:45:55;;;;;;;11.23;8.77;;;1.50;99.90;;;;;;5051567;28;20048;-74
2022/03/08 03:48:21;;;;;;;11.32;7.95;;;1.30;99.90;;;;;;5069192;28;20271;-74
2022/03/08 03:50:47;;;;;;;10.07;7.45;;;1.60;99.90;;;;;;5061570;28;20058;-73
2022/03/08 03:53:12;;;;;;;13.55;8.55;;;1.60;99.90;;;;;;5068264;28;20076;-74
2022/03/08 03:55:38;;;;;;;11.45;7.97;;;3.10;99.90;;;;;;5051642;28;20344;-73
2022/03/08 03:58:04;;;;;;;12.68;9.40;;;2.70;99.90;;;;;;5057650;28;20033;-73
2022/03/08 04:00:29;;;;;;;10.75;8.48;;;1.60;99.90;;;;;;5069663;28;20029;-73
2022/03/08 04:02:55;;;;;;;10.48;8.15;;;2.20;99.90;;;;;;5070599;28;20085;-75
2022/03/08 04:05:21;;;;;;;15.18;9.13;;;1.60;99.90;;;;;;5066882;28;20125;-74
2022/03/08 04:07:47;;;;;;;13.82;9.48;;;1.60;99.90;;;;;;5072400;28;20215;-75
2022/03/08 04:10:15;;;;;;;13.75;8.43;;;1.70;99.90;;;;;;5054598;28;20076;-73
2022/03/08 04:12:42;;;;;;;14.40;9.02;;;3.20;99.90;;;;;;5046634;28;20099;-74
2022/03/08 04:15:08;;;;;;;12.70;9.32;;;1.50;99.90;;;;;;5077196;28;20116;-74
2022/03/08 04:17:35;;;;;;;13.43;8.85;;;1.40;99.90;;;;;;5050973;28;20070;-73
2022/03/08 04:20:02;;;;;;;13.40;9.73;;;1.80;99.90;;;;;;5063041;28;20206;-76
2022/03/08 04:22:28;;;;;;;11.30;8.63;;;1.70;99.90;;;;;;5077262;28;20337;-73
2022/03/08 04:24:54;;;;;;;12.95;8.90;;;1.60;99.90;;;;;;5047155;28;20086;-75
2022/03/08 04:27:20;;;;;;;13.77;9.18;;;1.40;99.90;;;;;;5055972;28;20215;-74
2022/03/08 04:29:45;;;;;;;12.15;9.27;;;1.70;99.90;;;;;;5075763;28;20049;-75
2022/03/08 04:32:11;;;;;;;14.25;9.15;;;2.70;99.90;;;;;;5058296;28;20045;-74
2022/03/08 04:34:37;;;;;;;15.02;8.77;;;1.40;99.90;;;;;;5063493;28;20048;-73
2022/03/08 04:37:03;;;;;;;12.43;9.38;;;1.70;99.90;;;;;;5080654;28;20086;-73
2022/03/08 04:39:28;;;;;;;12.75;9.30;;;1.80;99.90;;;;;;5071636;28;20044;-74
2022/03/08 04:41:54;;;;;;;13.68;9.85;;;1.60;99.90;;;;;;5025657;28;20347;-73
2022/03/08 04:44:20;;;;;;;11.95;8.82;;;1.70;99.90;;;;;;5045638;28;20041;-75
2022/03/08 04:46:45;;;;;;;15.20;11.07;;;1.70;99.90;;;;;;5029569;28;20041;-75
2022/03/08 04:49:11;;;;;;;12.75;8.93;;;2.60;99.90;;;;;;5077860;28;20207;-74
2022/03/08 04:51:37;;;;;;;13.23;9.13;;;1.70;99.90;;;;;;5062098;28;20044;-74
2022/03/08 04:54:03;;;;;;;13.18;9.60;;;3.00;99.90;;;;;;5078160;28;20058;-75
2022/03/08 04:56:29;;;;;;;13.10;10.10;;;1.70;99.90;;;;;;5067609;28;20413;-75
2022/03/08 04:58:56;;;;;;;12.75;9.43;;;1.70;99.90;;;;;;5049106;28;20101;-74
2022/03/08 05:01:22;;;;;;;13.32;9.38;;;2.10;99.90;;;;;;5046935;28;20033;-75
2022/03/08 05:03:49;;;;;;;15.90;10.55;;;2.00;99.90;;;;;;5054298;28;20127;-74
2022/03/08 05:06:15;;;;;;;14.27;10.45;;;1.60;99.90;;;;;;5058275;28;20105;-75
2022/03/08 05:08:41;;;;;;;15.32;9.98;;;1.70;99.90;;;;;;5079076;28;20052;-74
2022/03/08 05:11:07;;;;;;;15.65;10.80;;;1.90;99.90;;;;;;5046639;28;20074;-73
2022/03/08 05:13:33;;;;;;;14.55;9.98;;;2.40;99.90;;;;;;5047430;28;20072;-73
2022/03/08 05:15:59;;;;;;;14.88;10.30;;;2.40;99.90;;;;;;5039983;28;20099;-74
2022/03/08 05:18:25;;;;;;;17.40;11.25;;;2.70;99.90;;;;;;5051615;28;20037;-73
2022/03/08 05:20:51;;;;;;;13.75;10.20;;;1.60;99.90;;;;;;5027721;28;20246;-73
2022/03/08 05:23:17;;;;;;;14.75;10.48;;;1.60;99.90;;;;;;5064541;28;20044;-73
2022/03/08 05:25:42;;;;;;;15.00;10.38;;;1.70;99.90;;;;;;5062030;28;20041;-72
2022/03/08 05:28:08;;;;;;;15.73;10.60;;;1.60;99.90;;;;;;5062928;28;20037;-72
2022/03/08 05:30:34;;;;;;;14.70;10.73;;;1.80;99.90;;;;;;5068078;28;20040;-73
2022/03/08 05:33:00;;;;;;;14.18;10.52;;;1.90;99.90;;;;;;5079200;28;20248;-75
2022/03/08 05:35:27;;;;;;;16.33;10.45;;;1.60;99.90;;;;;;5079190;28;20037;-73
2022/03/08 05:37:53;;;;;;;15.13;10.35;;;2.10;99.90;;;;;;5079151;28;20089;-73
2022/03/08 05:40:28;;;;;;;15.20;10.27;;;1.70;99.90;;;;;;5058421;28;20101;-74
2022/03/08 05:43:00;;;;;;;;;;;1.80;99.90;;;;;;5043371;28;20032;-76
2022/03/08 05:45:29;;;;;;;16.88;9.45;;;2.80;99.90;;;;;;5075853;28;20019;-74
2022/03/08 05:47:55;;;;;;;15.85;10.18;;;2.00;99.90;;;;;;5059097;28;20039;-75
2022/03/08 05:50:20;;;;;;;18.20;10.50;;;2.70;99.90;;;;;;5047096;28;20037;-75
2022/03/08 05:52:46;;;;;;;16.58;10.00;;;1.60;99.90;;;;;;5042309;28;20313;-75
2022/03/08 05:55:12;;;;;;;16.92;10.45;;;2.00;99.90;;;;;;5042924;28;20260;-76
2022/03/08 05:57:38;;;;;;;14.50;10.15;;;1.90;99.90;;;;;;5034626;28;20080;-74
2022/03/08 06:00:05;;;;;;;17.73;11.73;;;2.50;99.90;;;;;;5038988;28;20035;-75
2022/03/08 06:02:31;;;;;;;14.23;10.13;;;2.00;99.90;;;;;;5066552;28;20028;-75
2022/03/08 06:05:05;;;;;;;17.08;10.60;;;2.00;99.90;;;;;;5061607;28;20281;-75
2022/03/08 06:07:34;;;;;;;18.83;11.05;;;1.60;99.90;;;;;;5042926;28;20036;-74
2022/03/08 06:10:00;;;;;;;18.95;11.20;;;1.80;99.90;;;;;;5069738;28;20278;-74
2022/03/08 06:12:26;;;;;;;16.23;11.00;;;1.60;99.90;;;;;;5071819;28;20024;-75
2022/03/08 06:14:51;;;;;;;14.93;10.05;;;1.70;99.90;;;;;;5069663;28;20052;-76
2022/03/08 06:17:17;;;;;;;19.08;11.70;;;2.00;99.90;;;;;;5056915;28;20029;-75
2022/03/08 06:19:43;;;;;;;15.70;10.88;;;2.00;99.90;;;;;;5025232;28;20036;-74
2022/03/08 06:22:08;;;;;;;16.52;10.43;;;1.90;99.90;;;;;;5042100;28;20072;-74
2022/03/08 06:24:34;;;;;;;15.57;10.63;;;2.10;99.90;;;;;;5058578;28;20322;-74
2022/03/08 06:27:00;;;;;;;16.20;10.35;;;1.90;99.90;;;;;;5062358;28;20058;-74
2022/03/08 06:29:25;;;;;;;18.40;11.20;;;1.70;99.90;;;;;;5071663;28;20364;-75
2022/03/08 06:31:51;;;;;;;16.17;11.40;;;1.60;99.90;;;;;;5062054;28;20047;-75
2022/03/08 06:34:17;;;;;;;18.58;12.45;;;1.90;99.90;;;;;;5074322;28;20103;-74
2022/03/08 06:36:43;;;;;;;16.05;11.10;;;2.80;99.90;;;;;;5077486;28;20070;-75
2022/03/08 06:39:08;;;;;;;15.60;10.80;;;2.10;99.90;;;;;;5044595;28;20064;-74
2022/03/08 06:41:34;;;;;;;18.77;10.75;;;2.20;99.90;;;;;;5062740;28;20124;-74
2022/03/08 06:44:01;;;;;;;18.02;10.88;;;3.20;99.90;;;;;;5065202;28;20066;-74
2022/03/08 06:46:26;;;;;;;16.90;11.30;;;1.80;99.90;;;;;;5078414;28;20276;-74
2022/03/08 06:48:53;;;;;;;16.42;10.35;;;3.20;99.90;;;;;;5026212;28;20036;-74
2022/03/08 06:51:19;;;;;;;18.40;10.43;;;2.60;99.90;;;;;;5030152;28;20074;-74
2022/03/08 06:53:44;;;;;;;15.82;10.50;;;2.90;99.90;;;;;;5061328;28;20076;-74
2022/03/08 06:56:10;;;;;;;17.98;11.10;;;2.50;99.90;;;;;;5076669;28;20057;-74
2022/03/08 06:58:36;;;;;;;15.82;10.57;;;2.20;99.90;;;;;;5062905;28;20037;-74
2022/03/08 07:01:02;;;;;;;16.00;10.20;;;3.50;99.90;;;;;;5055677;28;20052;-76
2022/03/08 07:03:27;;;;;;;15.38;9.25;;;2.90;99.90;;;;;;5037751;28;20045;-75
2022/03/08 07:05:53;;;;;;;15.40;9.63;;;3.30;99.90;;;;;;5050438;28;20045;-76
2022/03/08 07:08:19;;;;;;;13.75;9.55;;;3.10;99.90;;;;;;5042752;28;20052;-73
2022/03/08 07:10:44;;;;;;;15.90;9.30;;;4.50;99.90;;;;;;5059731;28;20096;-73
2022/03/08 07:13:10;;;;;;;14.18;8.88;;;3.30;99.90;;;;;;5064267;28;20075;-74
2022/03/08 07:15:36;;;;;;;14.30;9.45;;;3.30;99.90;;;;;;5046396;28;20032;-74
2022/03/08 07:18:04;;;;;;;13.50;8.82;;;3.40;99.90;;;;;;5046659;28;20075;-74
2022/03/08 07:20:30;;;;;;;14.15;9.15;;;3.10;99.90;;;;;;5070768;28;20035;-73
2022/03/08 07:22:55;;;;;;;15.90;9.43;;;3.00;99.90;;;;;;5064455;28;20318;-74
2022/03/08 07:25:21;;;;;;;15.95;9.25;;;3.10;99.90;;;;;;5060217;28;20427;-74
2022/03/08 07:27:47;;;;;;;13.02;8.68;;;3.20;99.90;;;;;;5058918;28;20046;-75
2022/03/08 07:30:12;;;;;;;14.85;8.90;;;3.50;99.90;;;;;;5078133;28;20045;-74
2022/03/08 07:32:38;;;;;;;15.85;9.90;;;3.40;99.90;;;;;;5064612;28;20079;-74
2022/03/08 07:35:06;;;;;;;13.90;9.05;;;3.30;99.90;;;;;;5062471;28;20048;-73
2022/03/08 07:37:38;;;;;;;12.00;8.30;;;3.60;99.90;;;;;;5071706;28;20041;-75
2022/03/08 07:40:06;;;;;;;19.58;9.48;;;3.60;99.90;;;;;;5052576;28;20045;-75
2022/03/08 07:42:32;;;;;;;15.85;9.82;;;3.40;99.90;;;;;;5062170;28;20032;-75
2022/03/08 07:44:58;;;;;;;14.35;9.23;;;3.70;99.90;;;;;;5054228;28;20180;-75
2022/03/08 07:47:24;;;;;;;13.07;9.05;;;3.60;99.90;;;;;;5044521;28;20183;-75
2022/03/08 07:49:49;;;;;;;14.55;9.75;;;3.70;99.90;;;;;;5051940;28;20067;-75
2022/03/08 07:52:15;;;;;;;14.80;9.70;;;3.80;99.90;;;;;;5040886;28;20052;-76
2022/03/08 07:54:41;;;;;;;17.58;9.65;;;3.60;99.90;;;;;;5030765;28;20039;-75
2022/03/08 07:57:07;;;;;;;16.48;10.38;;;3.70;99.90;;;;;;5060719;28;20045;-75
2022/03/08 07:59:33;;;;;;;13.35;8.75;;;3.70;99.90;;;;;;5063656;28;20094;-73
2022/03/08 08:01:59;;;;;;;13.63;8.32;;;3.80;99.90;;;;;;5076980;28;20044;-74
2022/03/08 08:04:24;;;;;;;14.18;8.85;;;3.70;99.90;;;;;;5074462;28;20033;-73
2022/03/08 08:06:51;;;;;;;14.40;8.73;;;3.70;99.90;;;;;;5054747;28;20044;-73
2022/03/08 08:09:17;;;;;;;13.82;8.18;;;3.70;99.90;;;;;;5058689;28;20045;-73
2022/03/08 08:11:43;;;;;;;13.88;8.48;;;3.80;99.90;;;;;;5053195;28;20232;-73
2022/03/08 08:14:08;;;;;;;12.35;8.27;;;4.10;99.90;;;;;;5065153;28;20067;-74
2022/03/08 08:16:34;;;;;;;20.08;10.43;;;4.20;99.90;;;;;;5075241;28;20041;-73
2022/03/08 08:19:00;;;;;;;13.00;8.43;;;4.40;99.90;;;;;;5030401;28;20032;-73
2022/03/08 08:21:26;;;;;;;13.82;8.45;;;4.50;99.90;;;;;;5046340;28;20064;-73
2022/03/08 08:23:52;;;;;;;13.40;8.20;;;4.50;99.90;;;;;;5076889;28;20043;-73
2022/03/08 08:26:18;;;;;;;14.73;9.60;;;4.50;99.90;;;;;;5043686;28;20036;-73
2022/03/08 08:28:43;;;;;;;14.18;9.77;;;4.50;99.90;;;;;;5064988;28;20029;-73
2022/03/08 08:31:14;;;;;;;14.95;9.00;;;4.50;99.90;;;;;;5078129;28;20056;-74
2022/03/08 08:33:40;;;;;;;12.30;8.20;;;4.70;99.90;;;;;;5045341;28;20251;-77
2022/03/08 08:36:06;;;;;;;11.68;8.55;;;4.80;99.90;;;;;;5030843;28;20090;-75
2022/03/08 08:38:32;;;;;;;14.73;10.13;;;4.90;99.90;;;;;;5038214;28;20086;-78
2022/03/08 08:41:01;;;;;;;12.70;8.63;;;5.40;99.90;;;;;;5056524;28;20080;-77
2022/03/08 08:43:27;;;;;;;14.40;8.05;;;5.90;99.90;;;;;;5038498;28;20098;-77
2022/03/08 08:45:52;;;;;;;13.75;8.70;;;5.10;99.90;;;;;;5038122;28;20258;-76
2022/03/08 08:48:22;;;;;;;16.83;8.77;;;5.30;99.90;;;;;;5038425;28;20044;-77
2022/03/08 08:50:48;;;;;;;12.05;8.23;;;5.50;99.90;;;;;;5054792;28;20166;-76
2022/03/08 08:53:14;;;;;;;12.80;8.45;;;5.70;99.90;;;;;;5054651;28;20052;-77
2022/03/08 08:55:40;;;;;;;10.18;6.78;;;6.30;99.90;;;;;;5021740;28;20044;-77
2022/03/08 08:58:06;;;;;;;11.25;7.32;;;5.80;99.90;;;;;;5038061;28;20064;-76
2022/03/08 09:00:32;;;;;;;10.60;7.70;;;5.80;99.90;;;;;;5037757;28;20049;-76
2022/03/08 09:02:58;;;;;;;13.93;8.27;;;6.00;99.90;;;;;;5054661;28;20041;-76
2022/03/08 09:05:24;;;;;;;11.40;8.38;;;6.00;99.90;;;;;;5037459;28;20120;-75
2022/03/08 09:07:50;;;;;;;11.25;7.43;;;6.10;99.90;;;;;;5037842;28;20102;-75
2022/03/08 09:10:16;;;;;;;10.13;7.72;;;6.20;99.90;;;;;;5038762;28;20044;-75
2022/03/08 09:12:49;;;;;;;10.90;7.80;;;6.10;99.90;;;;;;5056501;28;20380;-76
2022/03/08 09:15:16;;;;;;;9.82;6.75;;;6.20;99.90;;;;;;5054125;28;20143;-76
2022/03/08 09:17:42;;;;;;;12.27;7.47;;;6.30;99.90;;;;;;5037835;28;20083;-76
2022/03/08 09:20:08;;;;;;;9.35;7.18;;;6.30;99.90;;;;;;5053901;28;20041;-76
2022/03/08 09:22:34;;;;;;;10.13;7.25;;;6.30;99.90;;;;;;5054298;28;20049;-76
2022/03/08 09:25:00;;;;;;;10.48;8.02;;;6.40;99.90;;;;;;5053878;28;20055;-76
2022/03/08 09:27:26;;;;;;;10.88;7.20;;;6.60;99.90;;;;;;5054180;28;20118;-76
2022/03/08 09:29:51;;;;;;;10.52;8.13;;;6.80;99.90;;;;;;5037406;28;20127;-76
2022/03/08 09:32:17;;;;;;;10.98;7.43;;;6.90;99.90;;;;;;5036752;28;20214;-75
2022/03/08 09:34:43;;;;;;;9.82;7.05;;;7.00;99.90;;;;;;5037034;28;20064;-76
2022/03/08 09:37:09;;;;;;;9.90;6.97;;;7.20;99.90;;;;;;5052939;28;20049;-76
2022/03/08 09:39:36;;;;;;;9.57;6.40;;;7.30;99.90;;;;;;5036829;28;20246;-76
2022/03/08 09:42:03;;;;;;;8.02;5.70;;;7.20;99.90;;;;;;5036884;28;20080;-76
2022/03/08 09:44:29;;;;;;;10.75;7.28;;;7.40;99.90;;;;;;5054020;28;20254;-76
2022/03/08 09:46:55;;;;;;;8.55;5.75;;;7.30;99.90;;;;;;5036884;28;20045;-75
2022/03/08 09:49:20;;;;;;;7.38;5.78;;;7.30;99.90;;;;;;5037483;28;20334;-76
2022/03/08 09:51:46;;;;;;;9.63;6.05;;;7.60;99.90;;;;;;5053846;28;20334;-76
2022/03/08 09:54:12;;;;;;;10.45;6.72;;;7.50;99.90;;;;;;5036460;28;20267;-75
2022/03/08 09:56:38;;;;;;;9.25;7.18;;;7.70;99.90;;;;;;5053397;28;20060;-75
2022/03/08 09:59:05;;;;;;;7.68;5.32;;;7.90;99.90;;;;;;5037305;28;20091;-75
2022/03/08 10:01:30;;;;;;;9.70;7.15;;;8.20;99.90;;;;;;5036678;28;20071;-75
2022/03/08 10:03:56;;;;;;;8.00;5.43;;;8.00;99.30;;;;;;5053675;28;20045;-75
2022/03/08 10:06:22;;;;;;;8.18;5.90;;;8.40;98.90;;;;;;5020917;28;20048;-75
2022/03/08 10:09:21;;;;;;;9.60;6.25;;;8.40;99.90;;;;;;5037078;28;20055;-75
2022/03/08 10:11:55;;;;;;;8.30;5.82;;;8.50;99.20;;;;;;5036898;28;20052;-75
2022/03/08 10:14:38;;;;;;;8.63;5.67;;;8.50;99.20;;;;;;5039852;28;20063;-76
2022/03/08 10:17:05;;;;;;;9.00;6.00;;;8.50;97.50;;;;;;5073532;28;20344;-75
2022/03/08 10:19:43;;;;;;;8.13;5.53;;;8.90;97.60;;;;;;5074283;28;20044;-75
2022/03/08 10:22:25;;;;;;;11.35;6.07;;;8.80;96.20;;;;;;5073559;28;20040;-76
2022/03/08 10:24:52;;;;;;;8.68;6.70;;;9.00;96.10;;;;;;5073461;28;20060;-75
2022/03/08 10:27:19;;;;;;;8.43;5.47;;;8.50;94.10;;;;;;5073325;28;20166;-76
2022/03/08 10:29:49;;;;;;;6.95;5.20;;;8.80;93.00;;;;;;5066518;28;20063;-75
2022/03/08 10:32:20;;;;;;;7.85;5.53;;;8.50;90.50;;;;;;5054639;28;20365;-75
2022/03/08 10:34:47;;;;;;;7.25;5.93;;;8.40;88.60;;;;;;5053596;28;20098;-75
2022/03/08 10:37:20;;;;;;;6.43;4.78;;;8.50;90.70;;;;;;5053717;28;20076;-75
2022/03/08 10:40:09;;;;;;;7.10;5.80;;;8.90;90.10;;;;;;5037070;28;20045;-75
2022/03/08 10:42:37;;;;;;;7.20;5.05;;;8.70;86.80;;;;;;5054093;28;20323;-75
2022/03/08 10:45:05;;;;;;;8.25;5.85;;;9.10;86.90;;;;;;5057075;28;20111;-75
2022/03/08 10:47:53;;;;;;;6.80;5.22;;;8.80;86.80;;;;;;5040779;28;20299;-76
2022/03/08 10:50:21;;;;;;;6.80;4.78;;;9.10;85.40;;;;;;5040438;28;20331;-76
2022/03/08 10:52:51;;;;;;;6.53;5.18;;;9.00;83.00;;;;;;5040375;28;20123;-76
2022/03/08 10:55:30;;;;;;;6.60;5.43;;;9.10;80.40;;;;;;5056567;28;20203;-76
2022/03/08 10:58:05;;;;;;;7.35;5.10;;;9.40;83.20;;;;;;5039193;28;20270;-76
2022/03/08 11:00:55;;;;;;;6.05;3.72;;;9.30;77.10;;;;;;5056882;28;20048;-76
2022/03/08 11:03:25;;;;;;;6.82;4.68;;;9.10;74.00;;;;;;5046355;28;20048;-76
2022/03/08 11:05:55;;;;;;;7.22;4.30;;;8.90;74.00;;;;;;5040380;28;20064;-75
2022/03/08 11:08:27;;;;;;;8.10;5.50;;;9.20;75.60;;;;;;5056257;28;20049;-75
2022/03/08 11:10:53;;;;;;;6.45;5.00;;;9.30;75.40;;;;;;5041097;28;20110;-75
2022/03/08 11:13:19;;;;;;;6.40;4.32;;;9.50;76.50;;;;;;5040034;28;20235;-76
2022/03/08 11:15:45;;;;;;;6.82;5.30;;;9.60;75.40;;;;;;5056562;28;20051;-73
2022/03/08 11:18:13;;;;;;;6.22;4.32;;;9.40;71.10;;;;;;5039481;28;20116;-75
2022/03/08 11:20:41;;;;;;;8.15;4.82;;;9.40;70.30;;;;;;5056391;28;20301;-75
2022/03/08 11:23:07;;;;;;;6.03;3.17;;;9.40;69.60;;;;;;5055850;28;20041;-75
2022/03/08 11:25:35;;;;;;;6.82;3.72;;;9.50;69.60;;;;;;5056955;28;20281;-75
2022/03/08 11:28:03;;;;;;;5.25;4.00;;;9.40;71.20;;;;;;5039682;28;20055;-75
2022/03/08 11:30:36;;;;;;;5.72;4.60;;;9.40;70.90;;;;;;5056368;28;20116;-75
2022/03/08 11:33:30;;;;;;;7.15;4.70;;;9.50;73.50;;;;;;5039688;28;20080;-75
2022/03/08 11:36:25;;;;;;;7.60;5.40;;;9.50;73.20;;;;;;5056517;28;20044;-75
2022/03/08 11:39:10;;;;;;;;;;;9.60;74.30;;;;;;5056684;28;20127;-75
2022/03/08 11:41:37;;;;;;;7.65;4.47;;;9.70;73.50;;;;;;5055286;28;19920;-75
2022/03/08 11:44:03;;;;;;;8.13;4.85;;;9.90;73.10;;;;;;5039478;28;20049;-75
2022/03/08 11:46:29;;;;;;;5.85;4.85;;;9.90;71.70;;;;;;5055925;28;20045;-75
2022/03/08 11:48:56;;;;;;;5.43;3.85;;;9.90;70.00;;;;;;5040168;28;20053;-76
2022/03/08 11:51:23;;;;;;;4.65;3.20;;;9.70;69.30;;;;;;5058718;28;20222;-75
2022/03/08 11:54:00;;;;;;;7.45;3.95;;;9.60;69.70;;;;;;5022952;28;20208;-75
2022/03/08 11:56:26;;;;;;;4.88;3.80;;;9.80;69.10;;;;;;5054947;28;20275;-75
2022/03/08 11:58:51;;;;;;;5.55;3.40;;;9.70;68.70;;;;;;5022794;28;20060;-76
2022/03/08 12:01:36;;;;;;;4.97;3.72;;;9.80;67.30;;;;;;5039414;28;20033;-75
2022/03/08 12:04:11;;;;;;;6.07;3.67;;;9.60;65.80;;;;;;5039578;28;20045;-75
2022/03/08 12:06:38;;;;;;;4.53;3.38;;;9.80;67.60;;;;;;5055866;28;20053;-74
2022/03/08 12:09:13;;;;;;;6.05;3.97;;;9.90;65.80;;;;;;5055848;28;20057;-76
2022/03/08 12:11:41;;;;;;;4.93;3.90;;;10.00;65.80;;;;;;5038548;28;20053;-75
2022/03/08 12:14:16;;;;;;;5.85;3.38;;;10.10;65.40;;;;;;5037632;28;20114;-77
2022/03/08 12:16:48;;;;;;;4.60;3.30;;;10.00;66.10;;;;;;5037821;28;20041;-76
2022/03/08 12:19:42;;;;;;;4.43;3.33;;;10.10;66.50;;;;;;5037984;28;20067;-75
2022/03/08 12:22:20;;;;;;;5.28;3.97;;;10.00;66.70;;;;;;5038192;28;20210;-74
2022/03/08 12:24:52;;;;;;;5.95;4.28;;;9.80;65.10;;;;;;5055347;28;20057;-74
2022/03/08 12:27:21;;;;;;;5.82;4.13;;;9.90;66.40;;;;;;5055074;28;20075;-75
2022/03/08 12:29:46;;;;;;;5.28;3.45;;;10.10;67.60;;;;;;5063474;28;20127;-75
2022/03/08 12:32:24;;;;;;;4.32;3.60;;;10.30;67.00;;;;;;5074401;28;20052;-75
2022/03/08 12:34:56;;;;;;;5.30;3.05;;;10.30;65.70;;;;;;5074772;28;20053;-75
2022/03/08 12:37:27;;;;;;;4.45;2.72;;;10.50;64.90;;;;;;5075014;28;20107;-74
2022/03/08 12:40:06;;;;;;;5.43;3.75;;;10.60;64.30;;;;;;5058265;28;20048;-75
2022/03/08 12:42:40;;;;;;;5.90;3.13;;;10.80;64.10;;;;;;5038824;28;20057;-75
2022/03/08 12:45:17;;;;;;;4.30;3.10;;;11.00;64.60;;;;;;5054469;28;20055;-74
2022/03/08 12:47:44;;;;;;;4.32;3.35;;;10.40;62.70;;;;;;5038430;28;20179;-75
2022/03/08 12:50:16;;;;;;;6.97;4.30;;;10.50;64.20;;;;;;5037768;28;20120;-74
2022/03/08 12:52:47;;;;;;;5.45;4.05;;;10.40;63.10;;;;;;5038371;28;20060;-75